createdAt,value
2018-04-24T00:00:59.894Z,100700.72
2018-04-24T00:03:27.277Z,100692.35
2018-04-24T00:05:54.673Z,100704.70
2018-04-24T00:08:22.157Z,100703.28
2018-04-24T00:10:49.609Z,100707.94
2018-04-24T00:13:17.021Z,100708.89
2018-04-24T00:15:44.409Z,100710.45
2018-04-24T00:18:11.815Z,100701.29
2018-04-24T00:20:39.205Z,100702.42
2018-04-24T00:23:06.657Z,100697.19
2018-04-24T00:25:34.069Z,100700.99
2018-04-24T00:28:01.457Z,100701.95
2018-04-24T00:30:28.925Z,100698.71
2018-04-24T00:32:56.308Z,100702.14
2018-04-24T00:35:23.713Z,100695.06
2018-04-24T00:37:51.097Z,100682.59
2018-04-24T00:40:18.535Z,100680.05
2018-04-24T00:42:45.991Z,100686.00
2018-04-24T00:45:13.413Z,100682.59
2018-04-24T00:47:40.865Z,100685.00
2018-04-24T00:50:08.304Z,100685.63
2018-04-24T00:52:35.777Z,100688.81
2018-04-24T00:55:03.165Z,100680.83
2018-04-24T00:57:30.586Z,100677.55
2018-04-24T00:59:57.973Z,100679.58
2018-04-24T01:02:25.373Z,100672.46
2018-04-24T01:04:52.753Z,100665.62
2018-04-24T01:07:20.161Z,100665.56
2018-04-24T01:09:47.556Z,100659.91
2018-04-24T01:12:14.952Z,100651.81
2018-04-24T01:14:42.416Z,100648.39
2018-04-24T01:17:09.892Z,100647.09
2018-04-24T01:19:37.201Z,100647.75
2018-04-24T01:22:04.602Z,100644.05
2018-04-24T01:24:32.046Z,100631.66
2018-04-24T01:26:59.449Z,100624.53
2018-04-24T01:29:26.921Z,100626.14
2018-04-24T01:31:54.385Z,100637.73
2018-04-24T01:34:21.773Z,100638.69
2018-04-24T01:36:49.192Z,100635.56
2018-04-24T01:39:16.576Z,100632.38
2018-04-24T01:41:45.685Z,100646.19
2018-04-24T01:44:13.069Z,100647.33
2018-04-24T01:46:40.466Z,100649.07
2018-04-24T01:49:07.933Z,100636.98
2018-04-24T01:51:35.369Z,100637.72
2018-04-24T01:54:02.761Z,100644.17
2018-04-24T01:56:30.177Z,100642.70
2018-04-24T01:58:57.572Z,100639.77
2018-04-24T02:01:24.968Z,100642.88
2018-04-24T02:03:52.483Z,100627.13
2018-04-24T02:06:19.878Z,100618.33
2018-04-24T02:08:47.261Z,100614.88
2018-04-24T02:11:14.681Z,100615.91
2018-04-24T02:13:42.087Z,100609.42
2018-04-24T02:16:09.472Z,100602.45
2018-04-24T02:18:36.892Z,100606.02
2018-04-24T02:21:04.397Z,100617.33
2018-04-24T02:23:31.792Z,100620.88
2018-04-24T02:25:59.212Z,100605.47
2018-04-24T02:28:26.601Z,100597.48
2018-04-24T02:30:54.009Z,100597.25
2018-04-24T02:33:21.483Z,100597.69
2018-04-24T02:35:48.945Z,100602.72
2018-04-24T02:38:16.337Z,100596.84
2018-04-24T02:40:43.725Z,100595.78
2018-04-24T02:43:11.177Z,100609.35
2018-04-24T02:45:38.669Z,100622.40
2018-04-24T02:48:06.135Z,100606.31
2018-04-24T02:50:33.548Z,100595.10
2018-04-24T02:53:00.945Z,100605.35
2018-04-24T02:55:28.381Z,100609.44
2018-04-24T02:57:55.780Z,100619.16
2018-04-24T03:00:23.168Z,100614.61
2018-04-24T03:02:50.556Z,100614.98
2018-04-24T03:05:17.981Z,100603.83
2018-04-24T03:07:45.467Z,100607.84
2018-04-24T03:10:12.917Z,100605.27
2018-04-24T03:12:40.321Z,100603.04
2018-04-24T03:15:07.710Z,100601.61
2018-04-24T03:17:35.149Z,100589.41
2018-04-24T03:20:02.546Z,100569.26
2018-04-24T03:22:29.958Z,100571.52
2018-04-24T03:24:57.337Z,100585.92
2018-04-24T03:27:24.765Z,100583.39
2018-04-24T03:29:52.156Z,100586.77
2018-04-24T03:32:19.562Z,100592.76
2018-04-24T03:34:46.968Z,100591.25
2018-04-24T03:37:14.358Z,100589.48
2018-04-24T03:39:41.765Z,100578.65
2018-04-24T03:42:09.274Z,100571.48
2018-04-24T03:44:36.674Z,100574.11
2018-04-24T03:47:04.061Z,100573.84
2018-04-24T03:49:31.540Z,100565.70
2018-04-24T03:51:58.951Z,100566.00
2018-04-24T03:54:26.352Z,100561.94
2018-04-24T03:56:53.749Z,100572.09
2018-04-24T03:59:21.152Z,100573.09
2018-04-24T04:01:48.624Z,100577.33
2018-04-24T04:04:16.950Z,100575.78
2018-04-24T04:06:44.450Z,100572.05
2018-04-24T04:09:11.836Z,100564.94
2018-04-24T04:11:39.262Z,100559.08
2018-04-24T04:14:06.665Z,100560.36
2018-04-24T04:16:34.053Z,100554.67
2018-04-24T04:19:13.305Z,100558.63
2018-04-24T04:21:52.609Z,100560.79
2018-04-24T04:27:18.690Z,100550.69
2018-04-24T04:29:46.100Z,100551.66
2018-04-24T04:32:13.507Z,100547.78
2018-04-24T04:34:40.964Z,100544.22
2018-04-24T04:37:09.274Z,100554.58
2018-04-24T04:39:36.686Z,100556.91
2018-04-24T04:42:04.158Z,100547.89
2018-04-24T04:44:31.549Z,100548.94
2018-04-24T04:46:58.932Z,100542.20
2018-04-24T04:49:26.338Z,100550.91
2018-04-24T04:51:53.724Z,100556.97
2018-04-24T04:54:21.217Z,100555.81
2018-04-24T04:56:48.617Z,100544.95
2018-04-24T04:59:16.021Z,100542.40
2018-04-24T05:01:43.489Z,100546.17
2018-04-24T05:04:10.944Z,100549.91
2018-04-24T05:06:38.412Z,100556.73
2018-04-24T05:09:06.657Z,100563.86
2018-04-24T05:11:34.048Z,100556.38
2018-04-24T05:14:01.456Z,100544.14
2018-04-24T05:16:28.857Z,100543.02
2018-04-24T05:18:56.264Z,100550.00
2018-04-24T05:21:23.673Z,100555.17
2018-04-24T05:23:51.088Z,100554.23
2018-04-24T05:26:18.489Z,100556.03
2018-04-24T05:28:45.892Z,100567.55
2018-04-24T05:31:13.336Z,100563.25
2018-04-24T05:33:40.789Z,100567.83
2018-04-24T05:36:08.201Z,100563.82
2018-04-24T05:38:35.601Z,100568.95
2018-04-24T05:41:03.065Z,100559.53
2018-04-24T05:43:30.454Z,100552.33
2018-04-24T05:45:57.905Z,100568.62
2018-04-24T05:48:25.305Z,100564.50
2018-04-24T05:50:52.702Z,100549.44
2018-04-24T05:53:20.085Z,100552.80
2018-04-24T05:55:47.588Z,100556.56
2018-04-24T05:58:15.049Z,100554.98
2018-04-24T06:00:42.531Z,100560.94
2018-04-24T06:03:10.057Z,100553.80
2018-04-24T06:05:37.417Z,100553.94
2018-04-24T06:08:04.805Z,100551.29
2018-04-24T06:10:32.205Z,100558.03
2018-04-24T06:12:59.602Z,100564.70
2018-04-24T06:15:27.065Z,100565.22
2018-04-24T06:17:54.468Z,100572.33
2018-04-24T06:20:21.877Z,100571.42
2018-04-24T06:22:49.274Z,100571.81
2018-04-24T06:25:16.677Z,100568.65
2018-04-24T06:27:44.065Z,100572.75
2018-04-24T06:30:11.573Z,100577.62
2018-04-24T06:32:38.960Z,100578.80
2018-04-24T06:35:06.389Z,100574.84
2018-04-24T06:37:33.846Z,100570.70
2018-04-24T06:40:01.245Z,100585.45
2018-04-24T06:42:28.636Z,100575.08
2018-04-24T06:44:56.115Z,100566.89
2018-04-24T06:47:23.513Z,100583.63
2018-04-24T06:49:50.924Z,100584.03
2018-04-24T06:52:18.332Z,100587.77
2018-04-24T06:54:45.734Z,100581.02
2018-04-24T06:57:13.159Z,100594.08
2018-04-24T06:59:40.645Z,100592.44
2018-04-24T07:02:08.049Z,100587.59
2018-04-24T07:04:35.440Z,100582.70
2018-04-24T07:07:02.908Z,100588.34
2018-04-24T07:09:30.304Z,100584.58
2018-04-24T07:11:57.717Z,100600.29
2018-04-24T07:14:25.111Z,100596.02
2018-04-24T07:16:52.524Z,100590.37
2018-04-24T07:19:19.905Z,100593.78
2018-04-24T07:21:47.296Z,100591.62
2018-04-24T07:24:14.698Z,100595.66
2018-04-24T07:26:42.112Z,100596.63
2018-04-24T07:29:09.504Z,100599.25
2018-04-24T07:31:36.977Z,100599.52
2018-04-24T07:34:04.435Z,100600.39
2018-04-24T07:36:31.889Z,100601.65
2018-04-24T07:38:59.340Z,100600.42
2018-04-24T07:41:26.748Z,100589.88
2018-04-24T07:43:54.193Z,100590.40
2018-04-24T07:46:21.553Z,100599.84
2018-04-24T07:48:48.945Z,100593.02
2018-04-24T07:51:16.330Z,100603.36
2018-04-24T07:53:43.773Z,100608.44
2018-04-24T07:56:11.168Z,100616.57
2018-04-24T07:58:38.585Z,100617.80
2018-04-24T08:01:06.049Z,100616.08
2018-04-24T08:03:33.530Z,100622.95
2018-04-24T08:06:00.957Z,100615.90
2018-04-24T08:08:28.382Z,100611.98
2018-04-24T08:10:55.775Z,100614.25
2018-04-24T08:13:23.189Z,100605.17
2018-04-24T08:15:50.578Z,100608.21
2018-04-24T08:18:17.976Z,100614.03
2018-04-24T08:20:45.381Z,100614.70
2018-04-24T08:23:12.844Z,100613.15
2018-04-24T08:25:40.229Z,100623.30
2018-04-24T08:28:07.626Z,100622.90
2018-04-24T08:30:35.033Z,100615.73
2018-04-24T08:33:02.486Z,100613.95
2018-04-24T08:35:29.877Z,100618.45
2018-04-24T08:37:57.276Z,100620.97
2018-04-24T08:40:24.670Z,100621.64
2018-04-24T08:42:52.133Z,100624.41
2018-04-24T08:45:19.557Z,100624.63
2018-04-24T08:47:46.982Z,100615.34
2018-04-24T08:50:14.352Z,100630.13
2018-04-24T08:52:41.729Z,100617.19
2018-04-24T08:55:09.130Z,100615.96
2018-04-24T08:57:36.524Z,100617.54
2018-04-24T09:00:04.024Z,100619.10
2018-04-24T09:02:31.422Z,100625.92
2018-04-24T09:04:58.851Z,100611.34
2018-04-24T09:07:26.257Z,100621.11
2018-04-24T09:09:53.662Z,100620.42
2018-04-24T09:12:21.109Z,100620.70
2018-04-24T09:14:48.504Z,100617.70
2018-04-24T09:17:15.973Z,100621.25
2018-04-24T09:19:43.397Z,100619.13
2018-04-24T09:22:10.785Z,100621.98
2018-04-24T09:24:38.192Z,100625.97
2018-04-24T09:27:05.673Z,100632.88
2018-04-24T09:29:32.976Z,100631.62
2018-04-24T09:32:00.373Z,100635.30
2018-04-24T09:34:27.854Z,100637.28
2018-04-24T09:36:55.245Z,100648.66
2018-04-24T09:39:22.653Z,100639.50
2018-04-24T09:41:50.049Z,100656.03
2018-04-24T09:44:17.482Z,100652.11
2018-04-24T09:46:44.964Z,100659.42
2018-04-24T09:49:12.365Z,100663.42
2018-04-24T09:51:39.754Z,100664.88
2018-04-24T09:54:07.210Z,100662.52
2018-04-24T09:56:34.618Z,100667.16
2018-04-24T09:59:02.020Z,100669.61
2018-04-24T10:01:29.653Z,100665.70
2018-04-24T10:03:57.077Z,100656.54
2018-04-24T10:06:24.489Z,100661.52
2018-04-24T10:08:51.910Z,100669.12
2018-04-24T10:11:19.302Z,100674.50
2018-04-24T10:13:46.967Z,100669.11
2018-04-24T10:16:14.317Z,100665.19
2018-04-24T10:18:41.708Z,100658.91
2018-04-24T10:21:09.137Z,100657.02
2018-04-24T10:23:36.534Z,100659.31
2018-04-24T10:26:03.936Z,100662.35
2018-04-24T10:28:31.409Z,100658.31
2018-04-24T10:30:59.613Z,100662.47
2018-04-24T10:33:27.036Z,100661.50
2018-04-24T10:35:54.436Z,100662.88
2018-04-24T10:38:21.933Z,100655.91
2018-04-24T10:40:49.389Z,100656.75
2018-04-24T10:43:16.789Z,100652.02
2018-04-24T10:45:44.309Z,100652.44
2018-04-24T10:48:11.708Z,100647.86
2018-04-24T10:50:39.119Z,100652.83
2018-04-24T10:53:06.514Z,100645.73
2018-04-24T10:55:33.930Z,100647.69
2018-04-24T10:58:01.329Z,100658.06
2018-04-24T11:00:28.725Z,100657.69
2018-04-24T11:02:56.210Z,100653.45
2018-04-24T11:05:23.613Z,100653.56
2018-04-24T11:07:51.042Z,100645.55
2018-04-24T11:10:18.449Z,100647.19
2018-04-24T11:12:45.845Z,100645.04
2018-04-24T11:15:13.264Z,100646.18
2018-04-24T11:17:40.654Z,100647.06
2018-04-24T11:20:08.058Z,100654.86
2018-04-24T11:22:35.460Z,100662.12
2018-04-24T11:25:02.857Z,100670.36
2018-04-24T11:27:30.273Z,100662.80
2018-04-24T11:29:57.721Z,100668.03
2018-04-24T11:32:25.125Z,100673.48
2018-04-24T11:34:52.526Z,100687.47
2018-04-24T11:37:19.925Z,100681.68
2018-04-24T11:39:47.326Z,100677.74
2018-04-24T11:42:14.720Z,100672.09
2018-04-24T11:44:42.139Z,100676.75
2018-04-24T11:47:09.596Z,100675.16
2018-04-24T11:49:37.083Z,100681.79
2018-04-24T11:52:04.397Z,100690.17
2018-04-24T11:54:31.804Z,100694.73
2018-04-24T11:56:59.243Z,100681.34
2018-04-24T11:59:26.673Z,100676.33
2018-04-24T12:01:54.089Z,100689.53
2018-04-24T12:04:21.489Z,100686.77
2018-04-24T12:06:48.891Z,100682.08
2018-04-24T12:09:16.306Z,100680.84
2018-04-24T12:11:43.693Z,100683.64
2018-04-24T12:14:11.101Z,100683.97
2018-04-24T12:16:38.576Z,100679.82
2018-04-24T12:19:06.037Z,100670.72
2018-04-24T12:21:33.457Z,100683.83
2018-04-24T12:24:00.944Z,100684.67
2018-04-24T12:26:28.357Z,100681.65
2018-04-24T12:28:55.752Z,100680.58
2018-04-24T12:31:23.159Z,100676.44
2018-04-24T12:33:50.581Z,100673.45
2018-04-24T12:36:17.985Z,100670.29
2018-04-24T12:38:45.394Z,100671.36
2018-04-24T12:41:12.792Z,100679.61
2018-04-24T12:43:40.293Z,100679.16
2018-04-24T12:46:07.701Z,100671.70
2018-04-24T12:48:35.105Z,100683.31
2018-04-24T12:51:02.632Z,100676.91
2018-04-24T12:53:30.224Z,100674.92
2018-04-24T12:55:57.625Z,100671.34
2018-04-24T12:58:25.025Z,100667.24
2018-04-24T13:00:52.441Z,100672.88
2018-04-24T13:03:19.841Z,100669.02
2018-04-24T13:05:47.325Z,100665.38
2018-04-24T13:08:14.774Z,100665.56
2018-04-24T13:10:42.222Z,100670.98
2018-04-24T13:13:09.628Z,100674.02
2018-04-24T13:15:37.021Z,100673.61
2018-04-24T13:18:04.480Z,100670.00
2018-04-24T13:20:31.888Z,100665.77
2018-04-24T13:22:59.400Z,100656.23
2018-04-24T13:25:26.903Z,100660.84
2018-04-24T13:27:54.267Z,100653.39
2018-04-24T13:30:21.702Z,100652.15
2018-04-24T13:32:49.104Z,100654.99
2018-04-24T13:35:16.541Z,100645.95
2018-04-24T13:37:43.933Z,100645.79
2018-04-24T13:40:11.388Z,100645.26
2018-04-24T13:42:38.863Z,100636.48
2018-04-24T13:45:06.290Z,100633.28
2018-04-24T13:47:33.692Z,100641.19
2018-04-24T13:50:02.035Z,100631.77
2018-04-24T13:52:29.437Z,100629.02
2018-04-24T13:54:56.851Z,100622.55
2018-04-24T13:57:24.253Z,100619.65
2018-04-24T13:59:51.658Z,100612.61
2018-04-24T14:02:19.073Z,100614.00
2018-04-24T14:04:46.460Z,100615.44
2018-04-24T14:07:13.865Z,100605.14
2018-04-24T14:09:41.257Z,100594.09
2018-04-24T14:12:08.672Z,100597.40
2018-04-24T14:14:36.091Z,100612.73
2018-04-24T14:17:03.502Z,100604.63
2018-04-24T14:19:30.889Z,100604.22
2018-04-24T14:21:58.292Z,100601.91
2018-04-24T14:24:25.702Z,100597.91
2018-04-24T14:26:53.109Z,100606.05
2018-04-24T14:29:20.565Z,100605.70
2018-04-24T14:31:48.009Z,100594.33
2018-04-24T14:34:15.421Z,100597.79
2018-04-24T14:36:42.893Z,100595.19
2018-04-24T14:39:10.293Z,100598.43
2018-04-24T14:41:37.702Z,100592.58
2018-04-24T14:44:05.172Z,100592.46
2018-04-24T14:46:32.602Z,100585.53
2018-04-24T14:48:59.987Z,100583.15
2018-04-24T14:51:27.503Z,100580.07
2018-04-24T14:53:55.013Z,100591.80
2018-04-24T14:56:22.401Z,100589.07
2018-04-24T14:58:49.821Z,100587.65
2018-04-24T15:01:17.261Z,100585.50
2018-04-24T15:03:44.679Z,100589.75
2018-04-24T15:06:12.105Z,100591.07
2018-04-24T15:08:39.494Z,100590.58
2018-04-24T15:11:06.892Z,100587.21
2018-04-24T15:13:34.294Z,100596.28
2018-04-24T15:16:01.695Z,100591.50
2018-04-24T15:18:29.136Z,100589.84
2018-04-24T15:20:56.613Z,100585.41
2018-04-24T15:23:24.080Z,100585.45
2018-04-24T15:25:51.525Z,100592.13
2018-04-24T15:28:18.989Z,100587.75
2018-04-24T15:30:46.462Z,100581.70
2018-04-24T15:33:13.893Z,100582.55
2018-04-24T15:35:41.348Z,100577.16
2018-04-24T15:38:08.753Z,100579.72
2018-04-24T15:40:36.148Z,100580.30
2018-04-24T15:43:03.569Z,100566.98
2018-04-24T15:45:30.983Z,100582.84
2018-04-24T15:47:58.517Z,100581.85
2018-04-24T15:50:25.849Z,100580.14
2018-04-24T15:52:53.250Z,100573.90
2018-04-24T15:55:20.645Z,100575.91
2018-04-24T15:57:48.044Z,100566.10
2018-04-24T16:00:15.441Z,100571.20
2018-04-24T16:02:42.849Z,100568.61
2018-04-24T16:05:10.248Z,100565.50
2018-04-24T16:07:37.678Z,100554.19
2018-04-24T16:10:05.070Z,100555.77
2018-04-24T16:12:32.489Z,100546.48
2018-04-24T16:14:59.965Z,100539.84
2018-04-24T16:17:27.373Z,100539.59
2018-04-24T16:19:54.776Z,100537.23
2018-04-24T16:22:22.181Z,100538.93
2018-04-24T16:24:49.673Z,100533.27
2018-04-24T16:27:17.200Z,100544.53
2018-04-24T16:29:44.639Z,100543.20
2018-04-24T16:32:11.945Z,100546.13
2018-04-24T16:34:40.337Z,100536.89
2018-04-24T16:37:07.772Z,100541.34
2018-04-24T16:39:35.230Z,100535.56
2018-04-24T16:42:02.681Z,100529.14
2018-04-24T16:44:30.078Z,100539.94
2018-04-24T16:46:57.487Z,100525.64
2018-04-24T16:49:24.970Z,100523.73
2018-04-24T16:51:52.419Z,100526.05
2018-04-24T16:54:19.937Z,100518.90
2018-04-24T16:56:47.334Z,100524.22
2018-04-24T16:59:14.814Z,100528.64
2018-04-24T17:01:42.244Z,100526.20
2018-04-24T17:04:09.646Z,100526.23
2018-04-24T17:06:37.084Z,100526.33
2018-04-24T17:09:07.194Z,100524.13
2018-04-24T17:11:34.601Z,100529.23
2018-04-24T17:14:02.021Z,100523.40
2018-04-24T17:16:29.477Z,100516.47
2018-04-24T17:18:56.889Z,100524.26
2018-04-24T17:21:24.289Z,100515.20
2018-04-24T17:23:51.707Z,100512.09
2018-04-24T17:26:19.107Z,100515.55
2018-04-24T17:28:46.579Z,100518.66
2018-04-24T17:31:13.975Z,100517.15
2018-04-24T17:33:41.399Z,100517.27
2018-04-24T17:36:08.809Z,100511.70
2018-04-24T17:38:36.226Z,100515.84
2018-04-24T17:41:03.645Z,100502.95
2018-04-24T17:43:31.044Z,100503.92
2018-04-24T17:45:58.466Z,100502.05
2018-04-24T17:48:25.853Z,100502.89
2018-04-24T17:50:53.245Z,100505.83
2018-04-24T17:53:20.653Z,100501.11
2018-04-24T17:55:48.072Z,100499.70
2018-04-24T17:58:15.485Z,100494.52
2018-04-24T18:00:42.911Z,100491.03
2018-04-24T18:03:10.314Z,100481.16
2018-04-24T18:05:37.737Z,100484.87
2018-04-24T18:08:05.148Z,100483.39
2018-04-24T18:10:32.558Z,100485.14
2018-04-24T18:12:59.953Z,100486.17
2018-04-24T18:15:27.376Z,100491.71
2018-04-24T18:17:54.785Z,100485.63
2018-04-24T18:20:22.367Z,100481.41
2018-04-24T18:22:49.769Z,100475.38
2018-04-24T18:25:17.191Z,100472.70
2018-04-24T18:27:44.756Z,100480.06
2018-04-24T18:30:12.081Z,100473.20
2018-04-24T18:32:39.507Z,100480.39
2018-04-24T18:35:06.917Z,100476.80
2018-04-24T18:37:34.348Z,100476.85
2018-04-24T18:40:01.778Z,100476.56
2018-04-24T18:42:29.255Z,100469.28
2018-04-24T18:44:56.648Z,100470.31
2018-04-24T18:47:24.064Z,100460.16
2018-04-24T18:49:51.501Z,100465.28
2018-04-24T18:52:18.946Z,100467.48
2018-04-24T18:54:46.368Z,100472.56
2018-04-24T18:57:13.777Z,100463.64
2018-04-24T18:59:41.237Z,100459.58
2018-04-24T19:02:08.652Z,100456.30
2018-04-24T19:04:36.053Z,100454.73
2018-04-24T19:07:03.462Z,100458.59
2018-04-24T19:09:30.861Z,100452.16
2018-04-24T19:11:58.316Z,100445.82
2018-04-24T19:14:25.744Z,100448.97
2018-04-24T19:16:53.165Z,100447.05
2018-04-24T19:19:26.481Z,100446.83
2018-04-24T19:21:53.894Z,100439.44
2018-04-24T19:24:27.007Z,100439.45
2018-04-24T19:26:54.417Z,100435.39
2018-04-24T19:29:21.867Z,100432.13
2018-04-24T19:31:54.961Z,100430.16
2018-04-24T19:34:22.425Z,100430.39
2018-04-24T19:36:49.890Z,100431.72
2018-04-24T19:39:22.846Z,100426.95
2018-04-24T19:41:51.216Z,100421.99
2018-04-24T19:44:18.576Z,100425.16
2018-04-24T19:46:45.972Z,100428.73
2018-04-24T19:49:19.103Z,100427.19
2018-04-24T19:51:46.545Z,100420.78
2018-04-24T19:54:13.968Z,100415.11
2018-04-24T19:56:41.427Z,100419.25
2018-04-24T19:59:08.848Z,100399.80
2018-04-24T20:01:36.338Z,100402.41
2018-04-24T20:04:03.743Z,100401.34
2018-04-24T20:06:31.145Z,100400.98
2018-04-24T20:08:58.560Z,100405.62
2018-04-24T20:11:25.949Z,100402.47
2018-04-24T20:13:53.409Z,100392.75
2018-04-24T20:16:20.988Z,100389.20
2018-04-24T20:18:48.453Z,100383.78
2018-04-24T20:21:15.843Z,100389.17
2018-04-24T20:23:43.268Z,100389.59
2018-04-24T20:26:10.650Z,100389.95
2018-04-24T20:28:38.046Z,100388.09
2018-04-24T20:31:05.468Z,100379.63
2018-04-24T20:33:32.928Z,100378.02
2018-04-24T20:36:00.352Z,100365.94
2018-04-24T20:38:27.811Z,100369.52
2018-04-24T20:40:55.217Z,100370.45
2018-04-24T20:43:22.688Z,100367.25
2018-04-24T20:45:50.130Z,100375.55
2018-04-24T20:48:17.601Z,100372.37
2018-04-24T20:50:45.021Z,100365.34
2018-04-24T20:53:12.436Z,100360.69
2018-04-24T20:55:39.888Z,100360.22
2018-04-24T20:58:07.284Z,100355.66
2018-04-24T21:00:34.797Z,100352.23
2018-04-24T21:03:02.188Z,100359.47
2018-04-24T21:05:29.693Z,100356.16
2018-04-24T21:07:57.175Z,100350.03
2018-04-24T21:10:24.591Z,100349.34
2018-04-24T21:12:51.978Z,100352.78
2018-04-24T21:15:19.418Z,100347.55
2018-04-24T21:17:46.896Z,100349.14
2018-04-24T21:20:14.305Z,100346.31
2018-04-24T21:22:41.721Z,100337.74
2018-04-24T21:25:09.123Z,100331.41
2018-04-24T21:27:36.542Z,100332.09
2018-04-24T21:30:03.953Z,100324.63
2018-04-24T21:32:31.349Z,100323.16
2018-04-24T21:34:58.756Z,100316.16
2018-04-24T21:37:26.230Z,100307.66
2018-04-24T21:39:53.666Z,100300.77
2018-04-24T21:42:21.182Z,100300.09
2018-04-24T21:44:48.590Z,100294.55
2018-04-24T21:47:15.994Z,100296.24
2018-04-24T21:49:43.386Z,100286.86
2018-04-24T21:52:10.792Z,100278.28
2018-04-24T21:54:38.196Z,100276.93
2018-04-24T21:57:05.781Z,100267.05
2018-04-24T21:59:33.190Z,100249.88
2018-04-24T22:02:00.621Z,100254.02
2018-04-24T22:04:28.023Z,100251.17
2018-04-24T22:06:56.141Z,100238.07
2018-04-24T22:09:23.609Z,100239.09
2018-04-24T22:11:51.025Z,100236.06
2018-04-24T22:14:18.438Z,100238.86
2018-04-24T22:16:45.837Z,100232.48
2018-04-24T22:19:13.264Z,100234.98
2018-04-24T22:21:40.677Z,100226.14
2018-04-24T22:24:08.144Z,100223.08
2018-04-24T22:26:35.601Z,100212.95
2018-04-24T22:29:02.996Z,100209.85
2018-04-24T22:31:30.400Z,100214.33
2018-04-24T22:33:57.800Z,100204.24
2018-04-24T22:36:25.216Z,100201.86
2018-04-24T22:38:52.693Z,100196.63
2018-04-24T22:41:20.101Z,100193.67
2018-04-24T22:43:47.512Z,100188.28
2018-04-24T22:46:14.918Z,100173.56
2018-04-24T22:48:42.360Z,100168.73
2018-04-24T22:51:09.766Z,100162.77
2018-04-24T22:53:37.213Z,100158.77
2018-04-24T22:56:04.632Z,100160.09
2018-04-24T22:58:32.132Z,100160.61
2018-04-24T23:00:59.554Z,100157.59
2018-04-24T23:03:26.941Z,100150.56
2018-04-24T23:05:54.344Z,100151.28
2018-04-24T23:08:21.781Z,100146.08
2018-04-24T23:11:01.082Z,100129.15
2018-04-24T23:13:40.333Z,100120.17
2018-04-24T23:16:19.772Z,100112.05
2018-04-24T23:18:58.889Z,100116.88
2018-04-24T23:21:25.765Z,100107.20
2018-04-24T23:23:53.165Z,100100.20
2018-04-24T23:26:20.566Z,100096.76
2018-04-24T23:28:48.098Z,100098.47
2018-04-24T23:31:15.489Z,100093.89
2018-04-24T23:33:43.841Z,100093.30
2018-04-24T23:36:11.488Z,100091.47
2018-04-24T23:38:38.921Z,100080.32
2018-04-24T23:41:06.340Z,100079.03
2018-04-24T23:43:33.747Z,100077.70
2018-04-24T23:46:01.144Z,100069.02
2018-04-24T23:48:28.633Z,100061.66
2018-04-24T23:50:56.080Z,100044.00
2018-04-24T23:53:23.565Z,100039.84
2018-04-24T23:55:50.968Z,100046.05
2018-04-24T23:58:18.469Z,100037.41
